Grayson, Louisiana
Current Conditions -  °F | °C
As of 1:53 PM on Thursday 27 Nov 2014 (Local Time) from KMLU Reporting Station
Clear Clear  
Wind Chill: 12°   Ceiling: Unl
Heat Index: 12°   Visibility: 10mi
Dew Point: -1°   Wind: 8mph
Humidity: 41%   Direction: 360°N
Pressure: 30.48"   Gusts: NA
Location:  32.05°N, 92.11°W
Report Text: KMLU 271953Z 36007KT 10SM CLR 12/M01 A3048 RMK AO2 SLP320 T01171011
Loading
Personal Weather Stations






























Interactive Weather Map New forecast layout! Learn more

10-Day Weather Forecast

Advertisements
Track Severe Weather on mobile